sensor_id;sensor_type;location;lat;lon;timestamp;pressure;altitude;pressure_sealevel;temperature;humidity
36726;BME280;44936;52.086;5.150;2023-01-10T00:01:57;101635.78;;;5.87;100.00
36726;BME280;44936;52.086;5.150;2023-01-10T00:04:25;101625.31;;;5.86;100.00
36726;BME280;44936;52.086;5.150;2023-01-10T00:06:51;101635.84;;;5.89;100.00
36726;BME280;44936;52.086;5.150;2023-01-10T00:09:43;101663.28;;;6.03;100.00
36726;BME280;44936;52.086;5.150;2023-01-10T00:12:20;101681.13;;;6.18;100.00
36726;BME280;44936;52.086;5.150;2023-01-10T00:15:05;101629.75;;;5.88;100.00
36726;BME280;44936;52.086;5.150;2023-01-10T00:17:30;101620.91;;;5.83;100.00
36726;BME280;44936;52.086;5.150;2023-01-10T00:19:56;101636.09;;;5.95;100.00
36726;BME280;44936;52.086;5.150;2023-01-10T00:22:21;101684.13;;;6.29;100.00
36726;BME280;44936;52.086;5.150;2023-01-10T00:24:49;101686.03;;;6.34;100.00
36726;BME280;44936;52.086;5.150;2023-01-10T00:27:15;101591.47;;;5.86;100.00
36726;BME280;44936;52.086;5.150;2023-01-10T00:29:46;101671.97;;;6.29;100.00
36726;BME280;44936;52.086;5.150;2023-01-10T00:32:12;101665.00;;;6.28;100.00
36726;BME280;44936;52.086;5.150;2023-01-10T00:34:37;101691.53;;;6.43;100.00
36726;BME280;44936;52.086;5.150;2023-01-10T00:37:06;101651.84;;;6.25;100.00
36726;BME280;44936;52.086;5.150;2023-01-10T00:39:31;101615.53;;;6.03;100.00
36726;BME280;44936;52.086;5.150;2023-01-10T00:41:57;101652.75;;;6.25;100.00
36726;BME280;44936;52.086;5.150;2023-01-10T00:44:41;101686.19;;;6.39;100.00
36726;BME280;44936;52.086;5.150;2023-01-10T00:47:06;101717.19;;;6.57;100.00
36726;BME280;44936;52.086;5.150;2023-01-10T00:49:32;101669.38;;;6.29;100.00
36726;BME280;44936;52.086;5.150;2023-01-10T00:51:57;101653.88;;;6.08;100.00
36726;BME280;44936;52.086;5.150;2023-01-10T00:54:24;101657.91;;;5.99;100.00
36726;BME280;44936;52.086;5.150;2023-01-10T00:56:52;101656.13;;;5.97;100.00
36726;BME280;44936;52.086;5.150;2023-01-10T00:59:22;101694.84;;;6.12;100.00
36726;BME280;44936;52.086;5.150;2023-01-10T01:01:48;101720.09;;;6.15;100.00
36726;BME280;44936;52.086;5.150;2023-01-10T01:04:13;101678.84;;;6.02;100.00
36726;BME280;44936;52.086;5.150;2023-01-10T01:06:39;101729.03;;;6.21;100.00
36726;BME280;44936;52.086;5.150;2023-01-10T01:09:04;101708.53;;;6.07;100.00
36726;BME280;44936;52.086;5.150;2023-01-10T01:11:30;101765.16;;;6.36;100.00
36726;BME280;44936;52.086;5.150;2023-01-10T01:13:58;101745.63;;;6.25;100.00
36726;BME280;44936;52.086;5.150;2023-01-10T01:16:26;101770.47;;;6.39;100.00
36726;BME280;44936;52.086;5.150;2023-01-10T01:18:51;101776.72;;;6.44;100.00
36726;BME280;44936;52.086;5.150;2023-01-10T01:21:17;101706.66;;;6.03;100.00
36726;BME280;44936;52.086;5.150;2023-01-10T01:23:43;101685.31;;;5.89;100.00
36726;BME280;44936;52.086;5.150;2023-01-10T01:26:11;101699.69;;;6.02;100.00
36726;BME280;44936;52.086;5.150;2023-01-10T01:28:57;101769.00;;;6.47;100.00
36726;BME280;44936;52.086;5.150;2023-01-10T01:31:25;101699.03;;;6.09;100.00
36726;BME280;44936;52.086;5.150;2023-01-10T01:33:51;101703.28;;;6.05;100.00
36726;BME280;44936;52.086;5.150;2023-01-10T01:36:19;101711.44;;;6.16;100.00
36726;BME280;44936;52.086;5.150;2023-01-10T01:38:57;101733.63;;;6.29;100.00
36726;BME280;44936;52.086;5.150;2023-01-10T01:41:42;101778.97;;;6.59;100.00
36726;BME280;44936;52.086;5.150;2023-01-10T01:44:30;101726.94;;;6.11;100.00
36726;BME280;44936;52.086;5.150;2023-01-10T02:07:44;101797.16;;;6.58;100.00
36726;BME280;44936;52.086;5.150;2023-01-10T02:13:44;101783.72;;;6.45;100.00
36726;BME280;44936;52.086;5.150;2023-01-10T02:56:35;101817.69;;;6.48;100.00
36726;BME280;44936;52.086;5.150;2023-01-10T03:02:09;101759.69;;;6.05;100.00
36726;BME280;44936;52.086;5.150;2023-01-10T03:10:58;101781.59;;;6.10;100.00
36726;BME280;44936;52.086;5.150;2023-01-10T03:13:56;101805.06;;;6.11;100.00
36726;BME280;44936;52.086;5.150;2023-01-10T03:16:29;101816.53;;;6.16;100.00
36726;BME280;44936;52.086;5.150;2023-01-10T03:19:07;101886.34;;;6.49;100.00
36726;BME280;44936;52.086;5.150;2023-01-10T03:21:34;101844.81;;;6.30;100.00
36726;BME280;44936;52.086;5.150;2023-01-10T03:24:35;101812.94;;;6.13;100.00
36726;BME280;44936;52.086;5.150;2023-01-10T03:27:08;101893.50;;;6.55;100.00
36726;BME280;44936;52.086;5.150;2023-01-10T03:29:44;101835.78;;;6.20;100.00
36726;BME280;44936;52.086;5.150;2023-01-10T03:32:16;101856.97;;;6.29;100.00
36726;BME280;44936;52.086;5.150;2023-01-10T03:34:44;101907.56;;;6.60;100.00
36726;BME280;44936;52.086;5.150;2023-01-10T03:37:16;101835.84;;;6.21;100.00
36726;BME280;44936;52.086;5.150;2023-01-10T03:43:33;101822.75;;;6.20;100.00
36726;BME280;44936;52.086;5.150;2023-01-10T03:46:32;101839.00;;;6.13;100.00
36726;BME280;44936;52.086;5.150;2023-01-10T03:49:07;101851.13;;;6.12;100.00
36726;BME280;44936;52.086;5.150;2023-01-10T03:51:34;101895.03;;;6.25;100.00
36726;BME280;44936;52.086;5.150;2023-01-10T03:54:14;101882.34;;;6.11;100.00
36726;BME280;44936;52.086;5.150;2023-01-10T03:56:44;101852.56;;;6.04;100.00
36726;BME280;44936;52.086;5.150;2023-01-10T03:59:13;101896.16;;;6.32;100.00
36726;BME280;44936;52.086;5.150;2023-01-10T04:01:38;101851.06;;;6.11;100.00
36726;BME280;44936;52.086;5.150;2023-01-10T04:04:04;101933.34;;;6.52;100.00
36726;BME280;44936;52.086;5.150;2023-01-10T04:06:35;101890.00;;;6.30;100.00
36726;BME280;44936;52.086;5.150;2023-01-10T04:09:00;101887.41;;;6.30;100.00
36726;BME280;44936;52.086;5.150;2023-01-10T04:11:26;101923.13;;;6.34;100.00
36726;BME280;44936;52.086;5.150;2023-01-10T04:13:51;101915.81;;;6.24;100.00
36726;BME280;44936;52.086;5.150;2023-01-10T04:16:22;101963.06;;;6.56;100.00
36726;BME280;44936;52.086;5.150;2023-01-10T04:19:06;101964.69;;;6.53;100.00
36726;BME280;44936;52.086;5.150;2023-01-10T04:21:32;101896.28;;;6.13;100.00
36726;BME280;44936;52.086;5.150;2023-01-10T04:23:57;101946.03;;;6.43;100.00
36726;BME280;44936;52.086;5.150;2023-01-10T04:26:23;101902.53;;;6.18;100.00
36726;BME280;44936;52.086;5.150;2023-01-10T04:28:49;101956.06;;;6.32;100.00
36726;BME280;44936;52.086;5.150;2023-01-10T04:31:14;101924.84;;;6.10;100.00
36726;BME280;44936;52.086;5.150;2023-01-10T04:33:40;101916.53;;;5.97;100.00
36726;BME280;44936;52.086;5.150;2023-01-10T04:36:06;101913.47;;;5.87;100.00
36726;BME280;44936;52.086;5.150;2023-01-10T04:38:31;101902.25;;;5.88;100.00
36726;BME280;44936;52.086;5.150;2023-01-10T04:40:57;101921.28;;;5.87;100.00
36726;BME280;44936;52.086;5.150;2023-01-10T04:43:24;101971.09;;;6.17;100.00
36726;BME280;44936;52.086;5.150;2023-01-10T04:45:49;101934.44;;;5.90;100.00
36726;BME280;44936;52.086;5.150;2023-01-10T04:48:18;101890.09;;;5.66;100.00
36726;BME280;44936;52.086;5.150;2023-01-10T04:50:51;101985.63;;;6.10;100.00
36726;BME280;44936;52.086;5.150;2023-01-10T04:53:20;101982.94;;;6.09;100.00
36726;BME280;44936;52.086;5.150;2023-01-10T04:55:48;101968.63;;;5.97;100.00
36726;BME280;44936;52.086;5.150;2023-01-10T04:58:16;101931.34;;;5.78;100.00
36726;BME280;44936;52.086;5.150;2023-01-10T05:00:42;101942.06;;;5.85;100.00
36726;BME280;44936;52.086;5.150;2023-01-10T05:03:07;101920.50;;;5.67;100.00
36726;BME280;44936;52.086;5.150;2023-01-10T05:05:33;101879.25;;;5.55;100.00
36726;BME280;44936;52.086;5.150;2023-01-10T05:07:58;101924.44;;;5.78;100.00
36726;BME280;44936;52.086;5.150;2023-01-10T05:10:24;101961.38;;;5.90;100.00
36726;BME280;44936;52.086;5.150;2023-01-10T05:12:49;101951.16;;;5.74;100.00
36726;BME280;44936;52.086;5.150;2023-01-10T05:15:15;101973.31;;;5.85;100.00
36726;BME280;44936;52.086;5.150;2023-01-10T05:17:40;101919.13;;;5.54;100.00
36726;BME280;44936;52.086;5.150;2023-01-10T05:20:06;101961.81;;;5.80;100.00
36726;BME280;44936;52.086;5.150;2023-01-10T05:22:32;101868.63;;;5.28;100.00
36726;BME280;44936;52.086;5.150;2023-01-10T05:25:01;101880.88;;;5.31;100.00
36726;BME280;44936;52.086;5.150;2023-01-10T05:27:26;101934.56;;;5.50;100.00
36726;BME280;44936;52.086;5.150;2023-01-10T05:29:52;101971.38;;;5.59;100.00
36726;BME280;44936;52.086;5.150;2023-01-10T05:32:18;101936.63;;;5.37;100.00
36726;BME280;44936;52.086;5.150;2023-01-10T05:34:43;101950.16;;;5.50;100.00
36726;BME280;44936;52.086;5.150;2023-01-10T05:37:08;101935.31;;;5.26;100.00
36726;BME280;44936;52.086;5.150;2023-01-10T05:39:34;101980.41;;;5.48;100.00
36726;BME280;44936;52.086;5.150;2023-01-10T05:41:59;101989.81;;;5.44;100.00
36726;BME280;44936;52.086;5.150;2023-01-10T05:44:32;101998.56;;;5.46;100.00
36726;BME280;44936;52.086;5.150;2023-01-10T05:46:57;101988.91;;;5.23;100.00
36726;BME280;44936;52.086;5.150;2023-01-10T05:49:23;101970.50;;;5.18;100.00
36726;BME280;44936;52.086;5.150;2023-01-10T05:51:48;102000.09;;;5.41;100.00
36726;BME280;44936;52.086;5.150;2023-01-10T05:54:14;101942.53;;;5.13;100.00
36726;BME280;44936;52.086;5.150;2023-01-10T05:56:39;101958.84;;;5.29;100.00
36726;BME280;44936;52.086;5.150;2023-01-10T05:59:05;101949.06;;;5.24;100.00
36726;BME280;44936;52.086;5.150;2023-01-10T06:01:30;101984.50;;;5.41;100.00
36726;BME280;44936;52.086;5.150;2023-01-10T06:03:55;101982.78;;;5.42;100.00
36726;BME280;44936;52.086;5.150;2023-01-10T06:06:21;101933.72;;;5.30;100.00
36726;BME280;44936;52.086;5.150;2023-01-10T06:08:46;101976.38;;;5.54;100.00
36726;BME280;44936;52.086;5.150;2023-01-10T06:11:11;101933.09;;;5.35;100.00
36726;BME280;44936;52.086;5.150;2023-01-10T06:13:37;101966.63;;;5.49;100.00
36726;BME280;44936;52.086;5.150;2023-01-10T06:16:02;101958.22;;;5.56;100.00
36726;BME280;44936;52.086;5.150;2023-01-10T06:18:28;101996.50;;;5.79;100.00
36726;BME280;44936;52.086;5.150;2023-01-10T06:20:54;101975.84;;;5.63;100.00
36726;BME280;44936;52.086;5.150;2023-01-10T06:23:19;101988.03;;;5.64;100.00
36726;BME280;44936;52.086;5.150;2023-01-10T06:25:45;101995.41;;;5.74;100.00
36726;BME280;44936;52.086;5.150;2023-01-10T06:28:12;102036.69;;;6.07;100.00
36726;BME280;44936;52.086;5.150;2023-01-10T06:30:39;101980.13;;;5.61;100.00
36726;BME280;44936;52.086;5.150;2023-01-10T06:33:10;102000.72;;;5.56;100.00
36726;BME280;44936;52.086;5.150;2023-01-10T06:35:36;102097.31;;;6.03;100.00
36726;BME280;44936;52.086;5.150;2023-01-10T06:38:01;102103.91;;;6.15;100.00
36726;BME280;44936;52.086;5.150;2023-01-10T06:40:30;102072.44;;;5.90;100.00
36726;BME280;44936;52.086;5.150;2023-01-10T06:42:55;102118.09;;;6.22;100.00
36726;BME280;44936;52.086;5.150;2023-01-10T06:45:24;102079.03;;;6.01;100.00
36726;BME280;44936;52.086;5.150;2023-01-10T06:47:50;102043.56;;;5.84;100.00
36726;BME280;44936;52.086;5.150;2023-01-10T06:50:15;102072.78;;;5.97;100.00
36726;BME280;44936;52.086;5.150;2023-01-10T06:52:43;102090.94;;;6.17;100.00
36726;BME280;44936;52.086;5.150;2023-01-10T06:55:11;102080.91;;;6.05;100.00
36726;BME280;44936;52.086;5.150;2023-01-10T06:57:37;102101.50;;;6.20;100.00
36726;BME280;44936;52.086;5.150;2023-01-10T07:00:07;102073.75;;;6.20;100.00
36726;BME280;44936;52.086;5.150;2023-01-10T07:02:33;102119.91;;;6.45;100.00
36726;BME280;44936;52.086;5.150;2023-01-10T07:04:58;102122.31;;;6.41;100.00
36726;BME280;44936;52.086;5.150;2023-01-10T07:07:23;102124.63;;;6.33;100.00
36726;BME280;44936;52.086;5.150;2023-01-10T07:09:49;102111.59;;;6.33;100.00
36726;BME280;44936;52.086;5.150;2023-01-10T07:12:14;102108.59;;;6.24;100.00
36726;BME280;44936;52.086;5.150;2023-01-10T07:14:40;102163.34;;;6.45;100.00
36726;BME280;44936;52.086;5.150;2023-01-10T07:17:05;102160.84;;;6.48;100.00
36726;BME280;44936;52.086;5.150;2023-01-10T07:19:32;102160.94;;;6.51;100.00
36726;BME280;44936;52.086;5.150;2023-01-10T07:21:57;102131.38;;;6.28;100.00
36726;BME280;44936;52.086;5.150;2023-01-10T07:24:23;102096.94;;;5.93;100.00
36726;BME280;44936;52.086;5.150;2023-01-10T07:26:50;102188.25;;;6.38;100.00
36726;BME280;44936;52.086;5.150;2023-01-10T07:29:15;102097.34;;;5.83;100.00
36726;BME280;44936;52.086;5.150;2023-01-10T07:31:41;102196.81;;;6.15;100.00
36726;BME280;44936;52.086;5.150;2023-01-10T07:34:06;102175.00;;;5.92;100.00
36726;BME280;44936;52.086;5.150;2023-01-10T07:36:34;102153.91;;;5.87;100.00
36726;BME280;44936;52.086;5.150;2023-01-10T07:39:01;102209.56;;;6.09;100.00
36726;BME280;44936;52.086;5.150;2023-01-10T07:41:26;102208.47;;;6.04;100.00
36726;BME280;44936;52.086;5.150;2023-01-10T07:43:52;102166.81;;;5.65;100.00
36726;BME280;44936;52.086;5.150;2023-01-10T07:46:17;102126.78;;;5.42;100.00
36726;BME280;44936;52.086;5.150;2023-01-10T07:48:43;102176.84;;;5.75;100.00
36726;BME280;44936;52.086;5.150;2023-01-10T07:51:11;102155.31;;;5.60;100.00
36726;BME280;44936;52.086;5.150;2023-01-10T07:53:37;102211.25;;;5.89;100.00
36726;BME280;44936;52.086;5.150;2023-01-10T07:56:02;102212.97;;;5.88;100.00
36726;BME280;44936;52.086;5.150;2023-01-10T07:58:28;102133.22;;;5.31;100.00
36726;BME280;44936;52.086;5.150;2023-01-10T08:00:58;102133.53;;;5.19;100.00
36726;BME280;44936;52.086;5.150;2023-01-10T08:03:24;102173.97;;;5.50;100.00
36726;BME280;44936;52.086;5.150;2023-01-10T08:05:57;102209.28;;;5.64;100.00
36726;BME280;44936;52.086;5.150;2023-01-10T08:08:31;102223.19;;;5.64;100.00
36726;BME280;44936;52.086;5.150;2023-01-10T08:11:00;102223.81;;;5.59;100.00
36726;BME280;44936;52.086;5.150;2023-01-10T08:13:27;102225.59;;;5.60;100.00
36726;BME280;44936;52.086;5.150;2023-01-10T08:15:53;102152.84;;;5.24;100.00
36726;BME280;44936;52.086;5.150;2023-01-10T08:18:20;102231.34;;;5.53;100.00
36726;BME280;44936;52.086;5.150;2023-01-10T08:20:48;102193.88;;;5.49;100.00
36726;BME280;44936;52.086;5.150;2023-01-10T08:23:31;102229.84;;;5.77;100.00
36726;BME280;44936;52.086;5.150;2023-01-10T08:25:57;102224.22;;;5.68;100.00
36726;BME280;44936;52.086;5.150;2023-01-10T08:28:23;102215.72;;;5.72;100.00
36726;BME280;44936;52.086;5.150;2023-01-10T08:30:49;102170.13;;;5.61;100.00
36726;BME280;44936;52.086;5.150;2023-01-10T08:33:29;102142.38;;;5.42;100.00
36726;BME280;44936;52.086;5.150;2023-01-10T08:35:55;102140.56;;;5.39;100.00
36726;BME280;44936;52.086;5.150;2023-01-10T08:38:23;102144.56;;;5.52;100.00
36726;BME280;44936;52.086;5.150;2023-01-10T08:40:49;102226.38;;;5.96;100.00
36726;BME280;44936;52.086;5.150;2023-01-10T08:43:15;102207.44;;;6.00;100.00
36726;BME280;44936;52.086;5.150;2023-01-10T08:45:41;102221.22;;;5.97;100.00
36726;BME280;44936;52.086;5.150;2023-01-10T08:48:07;102182.44;;;5.84;100.00
36726;BME280;44936;52.086;5.150;2023-01-10T08:50:34;102167.72;;;5.85;100.00
36726;BME280;44936;52.086;5.150;2023-01-10T08:53:03;102172.03;;;5.84;100.00
36726;BME280;44936;52.086;5.150;2023-01-10T08:55:29;102169.19;;;5.99;100.00
36726;BME280;44936;52.086;5.150;2023-01-10T08:57:58;102213.47;;;5.99;100.00
36726;BME280;44936;52.086;5.150;2023-01-10T09:00:24;102131.53;;;5.72;100.00
36726;BME280;44936;52.086;5.150;2023-01-10T09:02:51;102160.91;;;5.88;100.00
36726;BME280;44936;52.086;5.150;2023-01-10T09:05:17;102182.88;;;5.93;100.00
36726;BME280;44936;52.086;5.150;2023-01-10T09:07:42;102159.75;;;5.82;100.00
36726;BME280;44936;52.086;5.150;2023-01-10T09:14:14;102206.09;;;6.29;100.00
36726;BME280;44936;52.086;5.150;2023-01-10T09:16:39;102146.66;;;6.00;100.00
36726;BME280;44936;52.086;5.150;2023-01-10T09:19:05;102165.97;;;6.05;100.00
36726;BME280;44936;52.086;5.150;2023-01-10T09:21:32;102175.78;;;6.10;100.00
36726;BME280;44936;52.086;5.150;2023-01-10T09:24:00;102187.59;;;6.23;100.00
36726;BME280;44936;52.086;5.150;2023-01-10T09:26:26;102155.63;;;6.06;100.00
36726;BME280;44936;52.086;5.150;2023-01-10T09:28:52;102159.19;;;6.08;100.00
36726;BME280;44936;52.086;5.150;2023-01-10T09:31:20;102175.34;;;6.20;100.00
36726;BME280;44936;52.086;5.150;2023-01-10T09:33:46;102141.44;;;6.00;100.00
36726;BME280;44936;52.086;5.150;2023-01-10T09:36:18;102153.13;;;6.09;100.00
36726;BME280;44936;52.086;5.150;2023-01-10T09:38:44;102106.53;;;5.75;100.00
36726;BME280;44936;52.086;5.150;2023-01-10T09:47:52;102113.06;;;6.06;100.00
36726;BME280;44936;52.086;5.150;2023-01-10T09:50:33;102181.09;;;6.34;100.00
36726;BME280;44936;52.086;5.150;2023-01-10T09:53:26;102188.34;;;6.41;100.00
36726;BME280;44936;52.086;5.150;2023-01-10T09:59:17;102153.28;;;6.12;100.00
36726;BME280;44936;52.086;5.150;2023-01-10T10:01:47;102154.22;;;6.14;100.00
36726;BME280;44936;52.086;5.150;2023-01-10T10:04:35;102091.03;;;5.78;100.00
36726;BME280;44936;52.086;5.150;2023-01-10T10:07:09;102159.88;;;6.25;100.00
36726;BME280;44936;52.086;5.150;2023-01-10T10:09:37;102136.63;;;6.09;100.00
36726;BME280;44936;52.086;5.150;2023-01-10T10:12:26;102175.66;;;6.28;100.00
36726;BME280;44936;52.086;5.150;2023-01-10T10:21:00;102116.22;;;5.99;100.00
36726;BME280;44936;52.086;5.150;2023-01-10T10:38:59;102119.69;;;6.18;100.00
36726;BME280;44936;52.086;5.150;2023-01-10T13:01:33;101926.25;;;7.21;100.00
36726;BME280;44936;52.086;5.150;2023-01-10T14:07:01;101835.56;;;7.14;100.00
36726;BME280;44936;52.086;5.150;2023-01-10T14:09:43;101825.44;;;6.98;100.00
36726;BME280;44936;52.086;5.150;2023-01-10T14:12:23;101787.97;;;6.69;100.00
36726;BME280;44936;52.086;5.150;2023-01-10T14:15:03;101826.25;;;6.95;100.00
36726;BME280;44936;52.086;5.150;2023-01-10T14:18:24;101748.03;;;6.44;100.00
36726;BME280;44936;52.086;5.150;2023-01-10T18:33:38;101236.47;;;6.80;100.00
36726;BME280;44936;52.086;5.150;2023-01-10T18:36:12;101261.38;;;7.03;100.00
36726;BME280;44936;52.086;5.150;2023-01-10T18:38:47;101171.88;;;6.68;100.00
36726;BME280;44936;52.086;5.150;2023-01-10T18:41:48;101188.56;;;6.75;100.00
36726;BME280;44936;52.086;5.150;2023-01-10T20:20:30;101244.31;;;7.96;100.00
36726;BME280;44936;52.086;5.150;2023-01-10T20:22:56;101183.56;;;7.62;100.00
36726;BME280;44936;52.086;5.150;2023-01-10T20:25:23;101239.13;;;7.99;100.00
36726;BME280;44936;52.086;5.150;2023-01-10T20:27:52;101204.88;;;7.84;100.00
36726;BME280;44936;52.086;5.150;2023-01-10T20:30:18;101190.94;;;7.85;100.00
36726;BME280;44936;52.086;5.150;2023-01-10T20:32:43;101207.47;;;7.84;100.00
36726;BME280;44936;52.086;5.150;2023-01-10T20:35:35;101228.88;;;8.08;100.00
36726;BME280;44936;52.086;5.150;2023-01-10T20:38:14;101158.34;;;7.64;100.00
36726;BME280;44936;52.086;5.150;2023-01-10T20:41:05;101154.03;;;7.65;100.00
36726;BME280;44936;52.086;5.150;2023-01-10T20:43:32;101151.44;;;7.66;100.00
36726;BME280;44936;52.086;5.150;2023-01-10T20:46:19;101162.06;;;7.77;100.00
36726;BME280;44936;52.086;5.150;2023-01-10T20:48:52;101154.25;;;7.77;100.00
36726;BME280;44936;52.086;5.150;2023-01-10T20:51:23;101138.56;;;7.76;100.00
36726;BME280;44936;52.086;5.150;2023-01-10T20:54:04;101154.63;;;7.95;100.00
36726;BME280;44936;52.086;5.150;2023-01-10T20:56:37;101123.00;;;7.80;100.00
36726;BME280;44936;52.086;5.150;2023-01-10T20:59:05;101181.88;;;8.11;100.00
36726;BME280;44936;52.086;5.150;2023-01-10T21:18:07;101080.56;;;7.95;100.00
36726;BME280;44936;52.086;5.150;2023-01-10T21:23:37;101126.59;;;8.35;100.00
36726;BME280;44936;52.086;5.150;2023-01-10T21:26:25;101049.22;;;7.95;100.00
36726;BME280;44936;52.086;5.150;2023-01-10T21:28:53;101050.09;;;7.94;100.00
36726;BME280;44936;52.086;5.150;2023-01-10T21:31:21;101059.88;;;8.04;100.00
36726;BME280;44936;52.086;5.150;2023-01-10T21:33:55;101048.47;;;8.01;100.00
36726;BME280;44936;52.086;5.150;2023-01-10T21:36:21;101038.03;;;8.01;100.00
36726;BME280;44936;52.086;5.150;2023-01-10T21:38:54;101046.00;;;8.08;100.00
36726;BME280;44936;52.086;5.150;2023-01-10T21:41:46;101039.84;;;8.05;100.00
36726;BME280;44936;52.086;5.150;2023-01-10T22:20:48;100967.84;;;8.22;100.00
36726;BME280;44936;52.086;5.150;2023-01-10T22:23:29;101036.28;;;8.54;100.00
36726;BME280;44936;52.086;5.150;2023-01-10T22:26:05;101025.59;;;8.39;100.00
36726;BME280;44936;52.086;5.150;2023-01-10T22:34:01;100977.84;;;8.50;100.00
36726;BME280;44936;52.086;5.150;2023-01-10T22:37:02;101045.53;;;8.93;100.00
36726;BME280;44936;52.086;5.150;2023-01-10T22:39:47;100950.81;;;8.48;100.00
36726;BME280;44936;52.086;5.150;2023-01-10T22:42:22;100960.53;;;8.59;100.00
36726;BME280;44936;52.086;5.150;2023-01-10T22:44:56;100939.63;;;8.60;100.00
36726;BME280;44936;52.086;5.150;2023-01-10T22:47:47;101004.63;;;9.01;100.00
